Time;durP1;ratioP1;P1;durP2;ratioP2;P2;SDS_P1;SDS_P2;PMS_P1;PMS_P2;Temp;Humidity;BMP_temperature;BMP_pressure;BME280_temperature;BME280_humidity;BME280_pressure;Samples;Min_cycle;Max_cycle;Signal;HPM_P1;HPM_P2
2023/06/03 00:00:47;;;;;;;9.00;2.80;;;;;;;20.08;100.00;99106.04;108385;1254;58994;-59
2023/06/03 00:03:14;;;;;;;;;;;;;;;20.05;100.00;99114.69;106546;1256;73534;-58
2023/06/03 00:05:43;;;;;;;4.40;2.60;;;;;;;20.03;100.00;99112.19;104661;1261;69513;-58
2023/06/03 00:08:10;;;;;;;3.60;2.30;;;;;;;19.98;100.00;99115.61;104831;1257;72467;-57
2023/06/03 00:10:38;;;;;;;2.90;2.30;;;;;;;19.93;100.00;99116.27;104813;1252;61430;-58
2023/06/03 00:13:06;;;;;;;4.00;2.30;;;;;;;19.89;100.00;99123.09;104387;1254;60479;-58
2023/06/03 00:15:33;;;;;;;2.80;2.40;;;;;;;19.83;100.00;99125.54;104460;1254;73691;-58
2023/06/03 00:18:02;;;;;;;3.70;2.30;;;;;;;19.84;100.00;99132.02;104588;1258;69976;-58
2023/06/03 00:20:33;;;;;;;3.40;1.90;;;;;;;19.78;100.00;99134.51;105715;1251;72489;-57
2023/06/03 00:23:01;;;;;;;5.20;2.20;;;;;;;19.77;100.00;99138.84;106690;1254;61641;-57
2023/06/03 00:25:28;;;;;;;2.70;2.50;;;;;;;19.75;100.00;99146.70;104685;1257;60544;-57
2023/06/03 00:27:56;;;;;;;2.40;1.80;;;;;;;19.68;100.00;99147.61;104492;1260;74038;-57
2023/06/03 00:30:23;;;;;;;3.10;2.10;;;;;;;19.62;100.00;99156.88;104502;1263;69257;-58
2023/06/03 00:32:51;;;;;;;;;;;;;;;19.61;100.00;99162.45;104442;1267;73289;-58
2023/06/03 00:35:19;;;;;;;4.90;2.00;;;;;;;19.61;100.00;99165.27;104538;1260;61407;-57
2023/06/03 00:37:47;;;;;;;3.00;2.30;;;;;;;19.58;100.00;99168.95;104535;1261;60517;-57
2023/06/03 00:40:14;;;;;;;5.60;2.10;;;;;;;19.61;100.00;99173.46;104417;1266;73750;-57
2023/06/03 00:42:42;;;;;;;5.30;2.70;;;;;;;19.62;100.00;99177.48;104292;1264;69162;-57
2023/06/03 00:45:10;;;;;;;;;;;;;;;19.63;100.00;99182.71;104446;1265;72555;-57
2023/06/03 00:47:38;;;;;;;2.70;2.40;;;;;;;19.64;100.00;99184.27;104527;1257;61390;-58
2023/06/03 00:50:07;;;;;;;3.50;2.10;;;;;;;19.64;100.00;99189.41;104515;1254;60523;-58
2023/06/03 00:52:35;;;;;;;4.20;2.00;;;;;;;19.63;100.00;99194.48;104387;1260;73809;-57
2023/06/03 00:55:02;;;;;;;4.90;2.20;;;;;;;19.63;100.00;99198.14;104428;1270;69193;-57
2023/06/03 00:57:31;;;;;;;3.00;2.10;;;;;;;19.61;100.00;99207.57;104466;1257;72460;-58
2023/06/03 00:59:58;;;;;;;;;;;;;;;19.57;100.00;99216.53;104404;1260;61439;-57
2023/06/03 01:02:27;;;;;;;;;;;;;;;19.56;100.00;99215.55;104403;1257;59683;-57
2023/06/03 01:04:57;;;;;;;2.90;1.90;;;;;;;19.53;100.00;99217.92;104309;1263;73575;-58
2023/06/03 01:07:51;;;;;;;3.30;1.80;;;;;;;19.49;100.00;99219.70;104388;1261;69983;-58
2023/06/03 01:10:20;;;;;;;2.60;1.90;;;;;;;19.46;100.00;99221.40;104317;1260;73293;-57
2023/06/03 01:12:48;;;;;;;3.90;1.70;;;;;;;19.44;100.00;99223.63;104310;1265;61870;-57
2023/06/03 01:15:20;;;;;;;4.10;1.70;;;;;;;19.42;100.00;99231.11;104329;1256;60533;-60
2023/06/03 01:17:51;;;;;;;4.00;1.80;;;;;;;19.38;100.00;99232.91;104364;1269;74056;-57
2023/06/03 01:20:19;;;;;;;1.80;1.60;;;;;;;19.33;99.97;99242.75;104414;1258;69116;-58
2023/06/03 01:22:49;;;;;;;3.60;1.90;;;;;;;19.31;99.54;99242.44;108368;1253;72468;-58
2023/06/03 01:25:20;;;;;;;7.40;2.40;;;;;;;19.28;99.96;99255.61;104629;1257;62385;-57
2023/06/03 01:27:48;;;;;;;5.10;2.10;;;;;;;19.27;98.91;99259.95;104502;1267;60096;-59
2023/06/03 01:30:18;;;;;;;3.80;1.80;;;;;;;19.25;98.79;99258.70;104428;1267;74533;-58
2023/06/03 01:32:47;;;;;;;3.70;2.10;;;;;;;19.19;98.85;99260.80;104551;1256;69456;-59
2023/06/03 01:35:15;;;;;;;2.20;1.80;;;;;;;19.19;98.45;99262.39;104322;1275;73696;-59
2023/06/03 01:37:42;;;;;;;4.70;2.30;;;;;;;19.20;99.13;99263.41;104486;1268;62396;-58
2023/06/03 01:40:10;;;;;;;2.80;1.90;;;;;;;19.18;99.10;99262.16;104525;1259;60565;-59
2023/06/03 01:42:38;;;;;;;;;;;;;;;19.13;99.01;99261.88;104284;1264;72693;-59
2023/06/03 01:45:06;;;;;;;;;;;;;;;19.11;98.54;99264.88;104407;1270;69437;-60
2023/06/03 01:47:34;;;;;;;1.70;1.50;;;;;;;19.06;98.33;99267.79;104346;1254;72249;-60
2023/06/03 01:50:02;;;;;;;5.30;2.10;;;;;;;18.99;98.05;99270.85;104336;1267;61412;-60
2023/06/03 01:52:30;;;;;;;3.20;1.90;;;;;;;18.96;97.55;99272.83;104391;1258;60587;-60
2023/06/03 01:54:58;;;;;;;;;;;;;;;18.91;97.34;99270.63;104382;1264;73708;-59
2023/06/03 01:57:27;;;;;;;3.10;1.80;;;;;;;18.86;96.82;99272.41;104531;1259;69788;-60
2023/06/03 01:59:55;;;;;;;2.10;1.80;;;;;;;18.83;96.07;99280.69;104370;1257;72353;-59
2023/06/03 02:02:23;;;;;;;3.80;2.60;;;;;;;18.75;96.35;99282.20;104460;1260;61808;-60
2023/06/03 02:04:55;;;;;;;2.00;1.80;;;;;;;18.70;96.18;99291.16;104398;1254;60556;-59
2023/06/03 02:07:30;;;;;;;5.00;2.00;;;;;;;18.69;96.25;99294.62;104409;1257;74015;-59
2023/06/03 02:09:58;;;;;;;3.30;2.20;;;;;;;18.65;95.83;99295.98;104333;1270;69301;-59
2023/06/03 02:12:27;;;;;;;3.00;2.00;;;;;;;18.66;95.95;99295.39;104314;1257;72501;-58
2023/06/03 02:14:57;;;;;;;3.30;2.40;;;;;;;18.63;94.81;99295.80;104305;1275;61919;-59
2023/06/03 02:17:24;;;;;;;3.20;2.30;;;;;;;18.57;95.17;99298.10;104395;1260;60524;-59
2023/06/03 02:19:53;;;;;;;2.30;2.10;;;;;;;18.57;95.79;99308.90;104538;1260;74850;-59
2023/06/03 02:22:21;;;;;;;2.10;1.90;;;;;;;18.60;95.11;99316.83;108531;1251;69169;-60
2023/06/03 02:24:49;;;;;;;3.50;2.20;;;;;;;18.61;95.69;99324.02;106836;1254;72412;-59
2023/06/03 02:27:24;;;;;;;3.40;2.30;;;;;;;18.63;96.58;99328.29;104462;1270;62335;-59
2023/06/03 02:29:53;;;;;;;2.70;2.00;;;;;;;18.65;96.11;99340.89;104478;1251;60537;-59
2023/06/03 02:32:21;;;;;;;3.20;2.60;;;;;;;18.66;95.96;99340.97;104694;1254;74324;-59
2023/06/03 02:34:48;;;;;;;2.30;2.10;;;;;;;18.67;96.14;99349.73;105082;1257;69543;-59
2023/06/03 02:37:16;;;;;;;6.00;2.40;;;;;;;18.64;96.18;99352.30;104416;1257;73403;-59
2023/06/03 02:39:44;;;;;;;4.60;2.30;;;;;;;18.56;96.23;99354.20;104628;1253;61367;-59
2023/06/03 02:42:12;;;;;;;2.40;2.20;;;;;;;18.53;95.67;99358.52;104588;1254;61112;-59
2023/06/03 02:44:40;;;;;;;;;;;;;;;18.46;95.02;99361.77;104385;1257;74020;-59
2023/06/03 02:47:08;;;;;;;2.10;1.70;;;;;;;18.34;94.28;99361.48;104254;1261;68120;-59
2023/06/03 02:49:36;;;;;;;3.80;1.60;;;;;;;18.24;93.76;99358.56;104329;1260;73356;-60
2023/06/03 02:52:06;;;;;;;1.80;1.70;;;;;;;18.18;93.93;99371.45;104593;1257;60772;-60
2023/06/03 02:54:34;;;;;;;3.10;1.90;;;;;;;18.07;92.10;99382.58;104437;1257;60677;-59
2023/06/03 02:57:02;;;;;;;6.10;1.80;;;;;;;17.99;92.44;99396.86;104323;1274;74445;-59
2023/06/03 02:59:30;;;;;;;;;;;;;;;17.88;92.12;99399.45;104612;1255;70076;-59
2023/06/03 03:01:57;;;;;;;3.00;1.60;;;;;;;17.79;91.16;99397.29;104508;1256;71440;-59
2023/06/03 03:04:26;;;;;;;;;;;;;;;17.68;90.22;99411.41;104449;1262;61366;-60
2023/06/03 03:06:57;;;;;;;1.60;1.50;;;;;;;17.59;88.03;99425.59;104392;1255;59966;-60
2023/06/03 03:09:25;;;;;;;1.90;1.80;;;;;;;17.53;88.58;99434.20;104432;1273;72496;-59
2023/06/03 03:11:53;;;;;;;2.30;2.00;;;;;;;17.48;88.87;99434.38;104776;1254;69120;-59
2023/06/03 03:14:21;;;;;;;1.70;1.60;;;;;;;17.45;87.94;99435.12;104314;1268;72934;-58
2023/06/03 03:16:49;;;;;;;1.90;1.80;;;;;;;17.44;87.00;99447.55;104402;1257;60584;-58
2023/06/03 03:19:16;;;;;;;6.40;1.80;;;;;;;17.45;87.07;99453.67;104559;1255;60543;-59
2023/06/03 03:21:45;;;;;;;2.20;2.10;;;;;;;17.44;86.91;99456.30;105708;1257;74540;-59
2023/06/03 03:24:17;;;;;;;2.10;2.00;;;;;;;17.41;86.51;99452.40;108252;1251;70046;-59
2023/06/03 03:26:45;;;;;;;2.40;2.20;;;;;;;17.37;84.89;99453.83;105105;1263;73335;-60
2023/06/03 03:29:12;;;;;;;;;;;;;;;17.32;86.05;99455.41;104520;1251;61695;-59
2023/06/03 03:31:40;;;;;;;;;;;;;;;17.27;84.78;99458.80;104548;1261;60895;-59
2023/06/03 03:34:09;;;;;;;2.80;2.60;;;;;;;17.27;85.01;99461.09;104719;1254;73697;-60
2023/06/03 03:36:39;;;;;;;3.30;3.10;;;;;;;17.21;85.78;99460.98;104829;1257;68069;-61
2023/06/03 03:39:11;;;;;;;4.10;3.20;;;;;;;17.17;85.51;99462.88;104859;1254;73018;-60
2023/06/03 03:41:44;;;;;;;2.60;2.40;;;;;;;17.15;86.38;99466.38;104302;1270;61910;-60
2023/06/03 03:44:12;;;;;;;3.80;2.70;;;;;;;17.17;86.11;99467.87;104497;1254;60649;-58
2023/06/03 03:46:47;;;;;;;4.30;3.20;;;;;;;17.19;85.83;99465.39;104519;1257;73707;-60
2023/06/03 03:49:16;;;;;;;2.60;2.50;;;;;;;17.13;85.92;99461.03;104800;1257;69105;-60
2023/06/03 03:51:44;;;;;;;3.10;2.80;;;;;;;17.06;86.08;99463.67;104449;1254;72447;-60
2023/06/03 03:54:12;;;;;;;3.30;3.10;;;;;;;17.06;86.09;99465.62;104438;1269;61421;-59
2023/06/03 03:56:40;;;;;;;3.30;3.00;;;;;;;17.02;85.62;99472.27;104531;1254;61065;-59
2023/06/03 03:59:08;;;;;;;6.30;3.10;;;;;;;17.01;86.05;99480.48;104363;1256;74005;-59
2023/06/03 04:01:39;;;;;;;3.80;3.00;;;;;;;17.03;85.63;99485.44;104436;1261;69225;-61
2023/06/03 07:26:42;;;;;;;3.00;0.70;;;;;;;18.93;46.87;99728.00;103630;1292;617328;-59
2023/06/03 07:29:09;;;;;;;0.70;0.60;;;;;;;19.73;43.95;99733.49;105317;1271;60726;-59
2023/06/03 07:31:36;;;;;;;1.30;0.60;;;;;;;19.89;44.39;99738.41;103500;1276;60101;-59
2023/06/03 07:34:04;;;;;;;0.80;0.40;;;;;;;20.07;45.26;99742.73;103648;1267;72885;-60
2023/06/03 07:36:34;;;;;;;0.90;0.60;;;;;;;20.26;44.76;99744.20;103950;1274;68310;-58
2023/06/03 07:39:08;;;;;;;2.00;0.80;;;;;;;20.37;43.48;99749.13;103735;1276;164966;-59
2023/06/03 07:41:40;;;;;;;1.10;0.70;;;;;;;20.42;42.81;99756.38;103943;1268;59854;-58
2023/06/03 07:44:14;;;;;;;0.90;0.70;;;;;;;20.44;41.99;99757.30;104000;1275;59958;-58
2023/06/03 07:46:42;;;;;;;0.60;0.60;;;;;;;20.50;43.30;99764.48;104080;1269;71960;-59
2023/06/03 07:49:11;;;;;;;1.20;0.80;;;;;;;20.61;42.59;99767.30;104132;1267;69388;-58
2023/06/03 07:51:39;;;;;;;0.70;0.70;;;;;;;20.73;41.77;99769.39;104031;1273;73109;-58
2023/06/03 07:54:05;;;;;;;2.40;0.80;;;;;;;20.76;40.48;99768.79;103884;1269;59756;-59
2023/06/03 07:56:33;;;;;;;1.60;0.50;;;;;;;20.78;40.78;99774.44;104063;1282;61329;-58
2023/06/03 07:59:03;;;;;;;1.20;0.80;;;;;;;20.90;41.43;99781.50;103920;1269;73510;-59
2023/06/03 08:01:30;;;;;;;0.80;0.70;;;;;;;21.05;41.24;99782.41;104242;1269;69897;-59
2023/06/03 08:03:59;;;;;;;1.80;0.50;;;;;;;21.14;40.36;99786.80;103852;1270;71811;-60
2023/06/03 08:06:27;;;;;;;1.30;0.80;;;;;;;21.21;39.10;99786.91;104080;1267;60028;-58
2023/06/03 08:08:58;;;;;;;2.10;0.50;;;;;;;21.23;38.85;99787.45;104266;1267;59667;-58
2023/06/03 08:11:25;;;;;;;0.80;0.40;;;;;;;21.29;39.49;99789.95;103926;1268;73736;-60
2023/06/03 08:13:54;;;;;;;2.70;0.70;;;;;;;21.40;39.31;99788.48;105586;1257;68693;-60
2023/06/03 08:16:21;;;;;;;1.20;0.60;;;;;;;21.52;38.81;99793.61;107861;1256;72471;-60
2023/06/03 08:18:54;;;;;;;0.50;0.50;;;;;;;21.56;38.28;99790.73;107798;1256;60495;-60
2023/06/03 08:21:28;;;;;;;4.10;1.10;;;;;;;21.60;38.37;99796.46;106894;1257;60653;-59
2023/06/03 08:23:55;;;;;;;0.50;0.50;;;;;;;21.70;37.93;99798.45;104423;1269;73493;-61
2023/06/03 08:26:22;;;;;;;0.90;0.60;;;;;;;21.71;37.96;99799.23;104437;1262;70005;-64
2023/06/03 08:28:49;;;;;;;1.40;0.70;;;;;;;21.74;38.68;99802.51;104326;1260;73132;-60
2023/06/03 08:31:16;;;;;;;0.90;0.70;;;;;;;21.82;38.28;99806.69;104150;1268;60047;-60
2023/06/03 08:33:43;;;;;;;2.50;0.50;;;;;;;21.87;37.58;99811.21;104558;1260;59775;-60
2023/06/03 08:36:11;;;;;;;0.60;0.50;;;;;;;21.97;38.13;99804.44;104213;1262;71502;-61
2023/06/03 08:38:40;;;;;;;0.80;0.60;;;;;;;22.12;37.52;99804.17;104476;1257;68177;-63
2023/06/03 08:41:07;;;;;;;0.70;0.60;;;;;;;22.26;37.95;99802.86;104116;1276;72337;-62
2023/06/03 08:43:38;;;;;;;0.90;0.60;;;;;;;22.31;37.26;99800.64;103910;1260;60231;-62
2023/06/03 08:46:12;;;;;;;0.70;0.60;;;;;;;22.28;35.84;99796.41;104146;1263;59900;-62
2023/06/03 08:48:47;;;;;;;1.90;0.80;;;;;;;22.20;36.94;99799.39;104140;1262;72614;-62
2023/06/03 08:51:15;;;;;;;0.50;0.50;;;;;;;22.22;34.89;99800.27;104266;1261;70037;-62
2023/06/03 08:53:49;;;;;;;2.20;0.80;;;;;;;22.23;35.61;99802.69;104099;1264;72711;-62
2023/06/03 08:56:18;;;;;;;2.90;0.50;;;;;;;22.25;35.32;99802.58;104275;1258;59795;-61
2023/06/03 08:59:02;;;;;;;1.10;0.60;;;;;;;22.25;35.77;99794.84;104188;1266;60075;-64
2023/06/03 09:01:35;;;;;;;3.40;0.60;;;;;;;22.30;35.06;99797.27;104535;1260;72733;-63
2023/06/03 09:04:02;;;;;;;1.40;0.60;;;;;;;22.38;35.77;99800.37;104217;1262;69399;-63
2023/06/03 09:06:30;;;;;;;0.90;0.60;;;;;;;22.50;35.37;99810.88;104429;1273;71442;-60
2023/06/03 09:08:57;;;;;;;0.50;0.30;;;;;;;22.58;34.75;99810.39;104614;1262;60169;-61
2023/06/03 09:11:25;;;;;;;0.80;0.50;;;;;;;22.64;35.38;99805.83;104286;1260;60601;-61
2023/06/03 09:13:53;;;;;;;0.40;0.40;;;;;;;22.75;34.74;99812.57;104546;1262;73439;-60
2023/06/03 09:16:20;;;;;;;0.60;0.40;;;;;;;22.81;33.37;99817.88;104243;1272;69906;-61
2023/06/03 09:18:49;;;;;;;0.50;0.40;;;;;;;22.89;34.16;99812.19;104633;1262;72234;-60
2023/06/03 09:21:16;;;;;;;1.60;0.70;;;;;;;22.98;34.01;99810.13;104341;1260;60400;-64
2023/06/03 09:23:44;;;;;;;2.00;0.50;;;;;;;22.98;34.26;99816.67;104024;1265;59772;-64
2023/06/03 09:26:11;;;;;;;0.60;0.60;;;;;;;23.06;33.72;99816.70;105601;1257;72701;-61
2023/06/03 09:28:39;;;;;;;1.00;0.50;;;;;;;23.17;33.66;99821.02;107983;1257;70475;-61
2023/06/03 09:31:08;;;;;;;2.90;0.60;;;;;;;23.30;33.82;99814.69;107918;1256;71451;-62
2023/06/03 09:33:36;;;;;;;1.30;0.40;;;;;;;23.40;33.13;99815.14;105491;1259;60517;-60
2023/06/03 09:36:11;;;;;;;1.20;0.60;;;;;;;23.39;31.77;99819.58;104490;1273;59996;-62
2023/06/03 09:38:51;;;;;;;0.40;0.40;;;;;;;23.39;32.28;99829.23;104752;1259;73945;-60
2023/06/03 09:41:19;;;;;;;1.10;0.50;;;;;;;23.48;31.48;99821.73;104516;1260;70021;-60
2023/06/03 09:44:02;;;;;;;1.20;0.60;;;;;;;23.50;30.69;99823.48;104326;1259;71372;-61
2023/06/03 09:46:30;;;;;;;0.70;0.70;;;;;;;23.55;31.17;99825.96;104315;1262;59760;-61
2023/06/03 09:49:26;;;;;;;1.90;0.50;;;;;;;23.61;31.60;99836.96;104520;1270;60000;-61
2023/06/03 09:52:13;;;;;;;0.40;0.30;;;;;;;23.61;30.50;99829.52;104388;1259;73543;-61
2023/06/03 09:54:40;;;;;;;1.00;0.30;;;;;;;23.58;31.62;99834.56;104672;1260;70022;-63
2023/06/03 09:57:11;;;;;;;0.60;0.50;;;;;;;23.65;31.14;99836.05;104482;1254;73147;-60
2023/06/03 09:59:41;;;;;;;6.00;0.60;;;;;;;23.73;30.72;99836.73;104571;1254;60106;-61
2023/06/03 10:02:10;;;;;;;0.30;0.30;;;;;;;23.80;31.41;99840.38;104704;1253;60098;-62
2023/06/03 10:04:41;;;;;;;1.30;0.30;;;;;;;23.83;30.78;99839.23;104823;1255;73355;-63
2023/06/03 10:07:16;;;;;;;1.90;0.30;;;;;;;23.83;29.83;99839.05;104511;1258;70025;-64
2023/06/03 10:09:47;;;;;;;0.50;0.40;;;;;;;23.89;30.16;99830.27;104475;1259;72274;-63
2023/06/03 10:12:14;;;;;;;1.90;0.60;;;;;;;23.98;30.74;99832.60;104344;1259;60380;-63
2023/06/03 10:14:45;;;;;;;3.00;0.40;;;;;;;24.11;30.76;99834.54;106943;1255;59993;-64
2023/06/03 10:17:13;;;;;;;1.10;0.40;;;;;;;24.23;30.79;99836.83;104672;1260;71672;-64
2023/06/03 10:19:40;;;;;;;;;;;;;;;24.37;29.95;99835.98;108431;1254;69070;-63
2023/06/03 10:22:08;;;;;;;2.70;0.30;;;;;;;24.50;30.18;99829.90;108376;1254;72401;-63
2023/06/03 10:24:43;;;;;;;1.30;0.30;;;;;;;24.52;30.65;99823.98;104375;1270;59822;-62
2023/06/03 10:27:10;;;;;;;0.90;0.60;;;;;;;24.54;28.65;99828.99;104431;1257;59924;-62
2023/06/03 10:29:37;;;;;;;1.50;1.40;;;;;;;24.52;29.81;99829.91;104445;1270;72293;-65
2023/06/03 10:32:08;;;;;;;1.60;1.40;;;;;;;24.60;29.05;99834.30;104409;1266;69295;-61
2023/06/03 10:34:44;;;;;;;0.90;0.80;;;;;;;24.67;28.67;99832.05;104528;1262;72427;-62
2023/06/03 10:37:13;;;;;;;2.30;0.70;;;;;;;24.80;29.13;99835.02;104590;1258;60006;-61
2023/06/03 10:39:43;;;;;;;1.80;0.50;;;;;;;24.87;29.33;99841.55;104470;1255;60384;-62
2023/06/03 10:42:11;;;;;;;2.40;0.50;;;;;;;24.94;29.05;99847.68;104505;1257;71668;-70
2023/06/03 10:44:38;;;;;;;;;;;;;;;24.93;28.64;99847.42;104812;1258;69823;-59
2023/06/03 10:47:06;;;;;;;1.10;0.40;;;;;;;24.93;28.99;99845.19;104287;1270;73143;-65
2023/06/03 10:49:39;;;;;;;2.10;0.50;;;;;;;24.88;27.37;99846.44;104479;1258;59953;-60
2023/06/03 10:52:18;;;;;;;0.60;0.60;;;;;;;24.82;28.49;99841.27;104413;1273;60521;-60
2023/06/03 10:54:59;;;;;;;0.60;0.40;;;;;;;24.82;27.93;99845.23;104475;1263;72912;-62
2023/06/03 10:57:34;;;;;;;0.60;0.50;;;;;;;24.77;27.33;99843.58;104383;1257;70198;-61
2023/06/03 11:00:00;;;;;;;2.60;0.40;;;;;;;24.73;27.80;99852.20;104499;1259;72303;-62
2023/06/03 11:02:28;;;;;;;0.40;0.40;;;;;;;24.73;28.31;99853.17;104478;1258;60283;-60
2023/06/03 11:05:22;;;;;;;1.10;0.50;;;;;;;24.76;28.54;99853.77;104258;1260;59903;-63
2023/06/03 11:07:49;;;;;;;1.00;0.40;;;;;;;24.91;28.60;99852.24;104489;1260;72694;-62
2023/06/03 11:10:39;;;;;;;0.40;0.40;;;;;;;25.02;28.25;99849.92;104491;1259;69617;-63
2023/06/03 11:13:06;;;;;;;0.60;0.30;;;;;;;25.12;27.45;99847.40;104451;1254;71637;-62
2023/06/03 11:16:02;;;;;;;2.60;0.50;;;;;;;25.10;27.03;99842.98;105105;1257;59633;-64
2023/06/03 11:18:30;;;;;;;5.30;0.60;;;;;;;25.00;26.42;99854.59;104380;1257;60113;-61
2023/06/03 11:20:57;;;;;;;1.60;0.50;;;;;;;25.04;27.32;99854.48;104910;1257;72695;-63
2023/06/03 11:23:44;;;;;;;0.40;0.30;;;;;;;25.13;27.23;99854.73;104681;1259;69940;-63
2023/06/03 11:26:33;;;;;;;;;;;;;;;25.11;26.17;99857.92;106196;1259;73591;-61
2023/06/03 11:29:04;;;;;;;1.10;0.40;;;;;;;25.09;27.28;99853.15;108340;1254;60031;-63
2023/06/03 11:31:35;;;;;;;0.70;0.40;;;;;;;25.18;27.45;99854.90;107540;1258;60959;-64
2023/06/03 11:34:25;;;;;;;3.80;0.50;;;;;;;25.32;27.16;99852.48;105167;1258;73811;-62
2023/06/03 11:36:53;;;;;;;1.70;0.30;;;;;;;25.32;26.47;99850.86;105101;1260;70052;-61
2023/06/03 11:39:20;;;;;;;0.40;0.40;;;;;;;25.30;26.12;99854.88;105092;1254;72384;-62
2023/06/03 11:42:01;;;;;;;;;;;;;;;25.31;26.51;99857.92;105371;1260;60453;-61
2023/06/03 11:44:30;;;;;;;0.40;0.30;;;;;;;25.43;26.15;99860.46;104507;1263;60569;-62
2023/06/03 11:46:59;;;;;;;1.00;0.50;;;;;;;25.51;26.75;99858.48;104281;1260;74067;-64
2023/06/03 11:49:26;;;;;;;1.90;0.60;;;;;;;25.57;26.05;99850.21;104370;1259;70024;-63
2023/06/03 11:51:58;;;;;;;1.50;0.40;;;;;;;25.59;26.17;99861.70;104662;1259;72621;-61
2023/06/03 11:54:25;;;;;;;4.50;0.50;;;;;;;25.64;25.82;99864.66;104633;1259;60511;-64
2023/06/03 11:56:54;;;;;;;0.70;0.50;;;;;;;25.68;25.44;99865.10;104529;1259;60559;-61
2023/06/03 11:59:24;;;;;;;5.10;0.40;;;;;;;25.67;25.04;99863.07;104610;1258;73674;-61
2023/06/03 12:01:54;;;;;;;1.40;0.50;;;;;;;25.67;25.44;99865.05;104466;1273;68322;-60
2023/06/03 12:04:21;;;;;;;0.60;0.60;;;;;;;25.72;25.87;99870.33;104377;1276;72264;-60
2023/06/03 12:06:48;;;;;;;1.20;0.50;;;;;;;25.80;25.00;99873.89;104534;1259;60555;-61
2023/06/03 12:09:19;;;;;;;1.30;0.40;;;;;;;25.80;25.20;99869.25;104627;1255;60577;-62
2023/06/03 12:11:46;;;;;;;0.60;0.40;;;;;;;25.84;25.30;99870.98;104363;1260;72837;-63
2023/06/03 12:14:32;;;;;;;0.60;0.60;;;;;;;25.90;24.73;99868.43;105029;1266;69517;-63
2023/06/03 12:17:09;;;;;;;0.50;0.50;;;;;;;26.00;24.78;99863.14;104939;1258;72558;-64
2023/06/03 12:19:38;;;;;;;0.70;0.30;;;;;;;26.09;25.22;99863.48;104708;1266;60443;-64
2023/06/03 12:22:05;;;;;;;1.50;0.50;;;;;;;26.02;24.91;99861.39;107663;1253;60364;-63
2023/06/03 12:24:32;;;;;;;1.40;0.50;;;;;;;26.01;25.13;99864.65;106533;1258;73965;-62
2023/06/03 12:27:22;;;;;;;1.80;0.50;;;;;;;26.06;24.85;99871.41;104435;1260;70368;-62
2023/06/03 12:29:55;;;;;;;0.90;0.60;;;;;;;26.10;24.51;99869.98;108370;1253;72133;-63
2023/06/03 12:32:23;;;;;;;1.20;0.60;;;;;;;26.10;24.98;99865.89;108339;1254;58655;-64
2023/06/03 12:34:51;;;;;;;0.50;0.50;;;;;;;26.15;24.07;99862.63;108357;1254;60372;-64
2023/06/03 12:37:26;;;;;;;2.80;0.50;;;;;;;26.05;25.13;99864.40;108336;1253;73247;-64
2023/06/03 12:39:53;;;;;;;0.90;0.60;;;;;;;26.08;24.59;99861.33;105214;1260;69302;-61
2023/06/03 12:42:21;;;;;;;;;;;;;;;26.18;24.45;99864.61;105243;1257;73076;-63
2023/06/03 12:44:49;;;;;;;1.40;0.40;;;;;;;26.28;24.96;99874.36;104769;1260;60536;-61
2023/06/03 12:47:17;;;;;;;0.80;0.40;;;;;;;26.38;24.44;99871.89;104859;1258;60586;-61
2023/06/03 12:49:45;;;;;;;1.00;0.40;;;;;;;26.44;24.85;99865.90;105104;1254;73506;-63
2023/06/03 12:52:18;;;;;;;1.10;0.60;;;;;;;26.49;24.84;99873.99;104764;1259;69070;-63
2023/06/03 12:54:52;;;;;;;2.40;0.40;;;;;;;26.52;24.56;99875.68;105021;1257;73104;-63
2023/06/03 12:57:20;;;;;;;0.90;0.50;;;;;;;26.54;25.00;99883.31;104649;1270;59778;-62
2023/06/03 13:00:19;;;;;;;0.60;0.40;;;;;;;26.55;24.14;99882.14;104629;1257;60555;-63
2023/06/03 13:02:47;;;;;;;1.80;0.60;;;;;;;26.58;24.43;99880.23;104526;1260;73596;-63
2023/06/03 13:05:15;;;;;;;0.60;0.50;;;;;;;26.63;24.46;99882.63;104485;1253;69632;-63
2023/06/03 13:07:43;;;;;;;2.20;0.70;;;;;;;26.73;24.22;99885.87;104956;1262;71645;-63
2023/06/03 13:10:11;;;;;;;0.80;0.70;;;;;;;26.83;23.86;99888.39;104772;1263;61026;-65
2023/06/03 13:12:40;;;;;;;1.50;1.30;;;;;;;26.91;24.08;99882.77;104456;1260;61128;-65
2023/06/03 13:15:07;;;;;;;1.90;1.30;;;;;;;26.96;24.01;99880.83;105065;1257;74285;-63
2023/06/03 13:17:35;;;;;;;1.60;1.50;;;;;;;26.95;24.11;99885.27;104744;1257;69462;-63
2023/06/03 13:20:06;;;;;;;;;;;;;;;26.92;24.08;99880.39;104365;1260;72398;-62
2023/06/03 13:22:39;;;;;;;1.20;1.20;;;;;;;26.88;24.30;99883.65;104465;1266;60534;-63
2023/06/03 13:25:06;;;;;;;2.80;1.10;;;;;;;26.83;24.30;99887.64;104485;1259;60565;-65
2023/06/03 13:27:34;;;;;;;;;;;;;;;26.75;23.96;99889.71;104429;1260;74366;-63
2023/06/03 13:30:01;;;;;;;2.00;0.80;;;;;;;26.76;24.86;99886.35;106715;1259;69450;-64
2023/06/03 13:32:28;;;;;;;0.70;0.70;;;;;;;26.70;24.15;99880.23;107935;1259;73058;-62
2023/06/03 13:34:55;;;;;;;0.70;0.60;;;;;;;26.66;24.33;99879.17;105144;1258;60427;-62
2023/06/03 13:37:22;;;;;;;3.40;0.60;;;;;;;26.64;24.85;99882.98;105203;1264;60563;-60
2023/06/03 13:39:49;;;;;;;2.90;0.90;;;;;;;26.60;24.91;99883.36;104553;1264;73562;-62
2023/06/03 13:42:16;;;;;;;1.60;0.70;;;;;;;26.65;24.82;99877.18;104948;1259;69851;-62
2023/06/03 13:44:43;;;;;;;2.60;0.60;;;;;;;26.36;25.10;99881.05;104904;1264;72397;-60
2023/06/03 13:47:10;;;;;;;1.30;0.60;;;;;;;25.51;26.32;99887.60;104640;1253;60833;-61
2023/06/03 13:49:37;;;;;;;0.60;0.40;;;;;;;25.59;25.82;99882.75;104889;1255;60566;-64
2023/06/03 13:52:05;;;;;;;1.70;0.80;;;;;;;25.20;25.50;99889.02;104659;1257;73458;-63
2023/06/03 13:54:33;;;;;;;3.20;0.70;;;;;;;24.78;26.48;99891.51;104616;1259;69776;-62
2023/06/03 13:57:01;;;;;;;1.00;0.70;;;;;;;24.90;26.24;99890.72;104360;1266;72235;-63
2023/06/03 13:59:29;;;;;;;3.10;0.60;;;;;;;24.92;26.28;99896.40;104691;1260;60578;-63
2023/06/03 14:01:57;;;;;;;0.80;0.60;;;;;;;25.00;26.33;99895.97;104338;1272;59994;-64
2023/06/03 14:04:24;;;;;;;1.90;0.60;;;;;;;24.89;26.48;99898.11;104563;1264;74062;-64
2023/06/03 14:06:53;;;;;;;2.00;0.80;;;;;;;25.06;26.36;99895.96;104652;1261;70023;-63
2023/06/03 14:09:19;;;;;;;2.70;0.50;;;;;;;24.87;26.18;99898.53;104761;1260;71365;-63
2023/06/03 14:11:46;;;;;;;3.20;1.00;;;;;;;24.85;26.09;99895.48;104306;1266;59874;-63
2023/06/03 14:14:13;;;;;;;1.10;0.80;;;;;;;24.85;26.41;99896.35;104485;1262;60553;-63
2023/06/03 14:16:43;;;;;;;3.00;1.20;;;;;;;24.91;27.39;99900.62;104526;1258;74346;-63
2023/06/03 14:19:10;;;;;;;3.50;1.20;;;;;;;25.19;27.80;99903.99;104690;1258;69075;-70
2023/06/03 14:21:36;;;;;;;1.60;0.80;;;;;;;25.28;26.11;99908.17;106781;1256;73744;-65
2023/06/03 14:24:04;;;;;;;1.30;0.80;;;;;;;25.31;25.55;99907.96;105787;1254;60450;-67
2023/06/03 14:26:35;;;;;;;4.30;1.10;;;;;;;25.59;25.65;99901.55;105520;1254;60482;-64
2023/06/03 14:29:06;;;;;;;2.50;0.80;;;;;;;25.39;25.73;99903.77;104448;1260;74671;-64
2023/06/03 14:31:33;;;;;;;2.00;0.80;;;;;;;25.44;25.27;99902.55;104594;1260;69664;-64
2023/06/03 14:34:02;;;;;;;1.20;0.70;;;;;;;25.91;25.10;99907.31;104564;1254;71416;-63
2023/06/03 14:36:29;;;;;;;2.20;0.90;;;;;;;25.34;26.00;99909.15;104322;1260;60561;-63
2023/06/03 14:38:56;;;;;;;0.80;0.80;;;;;;;25.38;25.91;99915.19;104476;1257;60574;-64
2023/06/03 14:41:23;;;;;;;3.90;0.70;;;;;;;25.51;25.43;99910.52;104910;1254;74353;-63
2023/06/03 14:43:50;;;;;;;0.80;0.70;;;;;;;25.68;25.56;99913.02;104588;1258;69506;-64
2023/06/03 14:46:17;;;;;;;3.70;0.60;;;;;;;25.93;25.72;99907.99;104515;1261;73281;-63
2023/06/03 14:48:46;;;;;;;1.50;0.80;;;;;;;26.10;25.35;99904.64;105085;1254;60558;-64
2023/06/03 14:51:13;;;;;;;2.60;0.80;;;;;;;26.16;25.22;99900.54;104462;1254;60823;-65
2023/06/03 14:53:40;;;;;;;2.80;0.90;;;;;;;26.26;25.37;99903.17;104768;1257;73840;-63
2023/06/03 14:56:07;;;;;;;1.00;0.80;;;;;;;26.80;24.20;99903.78;104648;1261;69268;-66
2023/06/03 14:58:35;;;;;;;0.80;0.60;;;;;;;27.18;24.47;99906.20;104636;1254;72335;-64
2023/06/03 15:01:05;;;;;;;0.90;0.70;;;;;;;27.54;24.76;99907.12;104583;1258;60476;-62
2023/06/03 15:03:33;;;;;;;1.10;0.70;;;;;;;27.87;23.52;99903.32;104364;1260;61057;-64